createdAt,value
2023-02-11T00:01:09.472Z,102567.34
2023-02-11T00:03:38.708Z,102569.22
2023-02-11T00:06:09.426Z,102564.97
2023-02-11T00:08:37.002Z,102558.19
2023-02-11T00:11:04.505Z,102560.56
2023-02-11T00:13:31.696Z,102556.34
2023-02-11T00:15:59.143Z,102557.16
2023-02-11T00:18:26.272Z,102558.03
2023-02-11T00:20:53.399Z,102556.50
2023-02-11T00:23:20.769Z,102556.63
2023-02-11T00:25:47.906Z,102558.31
2023-02-11T00:28:15.085Z,102545.53
2023-02-11T00:30:42.652Z,102545.56
2023-02-11T00:33:09.848Z,102541.25
2023-02-11T00:35:38.690Z,102544.63
2023-02-11T00:38:08.008Z,102545.50
2023-02-11T00:40:35.148Z,102547.19
2023-02-11T00:43:03.970Z,102549.75
2023-02-11T00:45:31.414Z,102545.25
2023-02-11T00:47:58.565Z,102549.38
2023-02-11T00:50:28.120Z,102536.22
2023-02-11T00:52:56.001Z,102546.13
2023-02-11T00:55:23.081Z,102538.63
2023-02-11T00:57:50.235Z,102528.97
2023-02-11T01:00:17.768Z,102528.81
2023-02-11T01:02:45.163Z,102532.41
2023-02-11T01:05:12.410Z,102532.53
2023-02-11T01:07:39.791Z,102534.06
2023-02-11T01:10:06.923Z,102535.47
2023-02-11T01:12:36.363Z,102527.00
2023-02-11T01:15:05.344Z,102510.56
2023-02-11T01:17:33.948Z,102511.25
2023-02-11T01:20:08.603Z,102496.78
2023-02-11T01:22:39.551Z,102504.66
2023-02-11T01:25:08.002Z,102498.56
2023-02-11T01:27:36.878Z,102495.09
2023-02-11T01:30:05.662Z,102502.59
2023-02-11T01:32:33.546Z,102495.84
2023-02-11T01:35:01.074Z,102486.41
2023-02-11T01:37:28.441Z,102488.97
2023-02-11T01:39:55.602Z,102486.34
2023-02-11T01:42:23.625Z,102486.63
2023-02-11T01:44:52.503Z,102480.84
2023-02-11T01:47:21.305Z,102486.63
2023-02-11T01:50:06.756Z,102484.88
2023-02-11T01:52:39.093Z,102475.69
2023-02-11T01:55:34.113Z,102473.03
2023-02-11T01:58:02.841Z,102479.81
2023-02-11T02:00:39.356Z,102473.03
2023-02-11T02:03:20.152Z,102471.88
2023-02-11T02:06:06.830Z,102479.78
2023-02-11T02:08:44.521Z,102475.28
2023-02-11T02:11:11.786Z,102479.47
2023-02-11T02:13:39.236Z,102479.31
2023-02-11T02:16:09.965Z,102477.41
2023-02-11T02:18:56.157Z,102474.69
2023-02-11T02:21:32.569Z,102479.50
2023-02-11T02:24:39.041Z,102476.72
2023-02-11T02:27:25.331Z,102475.69
2023-02-11T02:30:16.674Z,102470.22
2023-02-11T02:33:23.415Z,102474.47
2023-02-11T02:36:08.802Z,102473.19
2023-02-11T02:38:47.672Z,102464.69
2023-02-11T02:41:21.080Z,102469.28
2023-02-11T02:43:50.232Z,102460.41
2023-02-11T02:46:19.141Z,102462.97
2023-02-11T02:48:49.480Z,102467.09
2023-02-11T02:51:41.812Z,102463.41
2023-02-11T02:54:33.992Z,102463.28
2023-02-11T02:57:16.895Z,102452.19
2023-02-11T03:00:04.323Z,102456.28
2023-02-11T03:02:53.499Z,102456.38
2023-02-11T03:05:30.433Z,102460.69
2023-02-11T03:08:09.224Z,102455.81
2023-02-11T03:10:44.216Z,102450.19
2023-02-11T03:13:12.234Z,102447.22
2023-02-11T03:15:44.589Z,102446.81
2023-02-11T03:18:14.567Z,102447.88
2023-02-11T03:20:44.636Z,102439.09
2023-02-11T03:23:17.066Z,102442.44
2023-02-11T03:25:51.074Z,102432.91
2023-02-11T03:28:27.910Z,102434.38
2023-02-11T03:31:11.383Z,102439.47
2023-02-11T03:33:57.001Z,102432.88
2023-02-11T03:36:28.705Z,102443.25
2023-02-11T03:38:57.281Z,102436.28
2023-02-11T03:41:25.073Z,102429.25
2023-02-11T03:43:57.375Z,102425.06
2023-02-11T03:46:31.177Z,102424.03
2023-02-11T03:49:02.969Z,102416.22
2023-02-11T03:51:32.424Z,102414.88
2023-02-11T03:54:02.149Z,102403.66
2023-02-11T03:56:32.260Z,102397.34
2023-02-11T03:58:59.794Z,102397.34
2023-02-11T04:01:27.041Z,102392.84
2023-02-11T04:03:54.526Z,102388.25
2023-02-11T04:06:21.667Z,102380.44
2023-02-11T04:08:48.845Z,102382.06
2023-02-11T04:11:16.339Z,102380.00
2023-02-11T04:13:43.493Z,102379.78
2023-02-11T04:16:10.741Z,102373.91
2023-02-11T04:18:38.270Z,102376.88
2023-02-11T04:21:05.670Z,102375.22
2023-02-11T04:23:32.824Z,102364.50
2023-02-11T04:26:00.260Z,102353.91
2023-02-11T04:28:29.440Z,102352.47
2023-02-11T04:30:56.885Z,102355.81
2023-02-11T04:33:24.517Z,102349.72
2023-02-11T04:35:52.135Z,102357.62
2023-02-11T04:38:19.445Z,102352.75
2023-02-11T04:40:46.872Z,102351.81
2023-02-11T04:43:14.061Z,102347.53
2023-02-11T04:45:41.301Z,102351.66
2023-02-11T04:48:08.777Z,102353.62
2023-02-11T04:50:36.049Z,102346.97
2023-02-11T04:53:03.316Z,102352.75
2023-02-11T04:55:30.741Z,102351.19
2023-02-11T04:57:57.886Z,102353.78
2023-02-11T05:00:24.951Z,102356.31
2023-02-11T05:02:52.491Z,102348.69
2023-02-11T05:05:19.743Z,102354.31
2023-02-11T05:07:46.907Z,102350.97
2023-02-11T05:10:14.365Z,102362.25
2023-02-11T05:12:41.607Z,102358.81
2023-02-11T05:15:08.956Z,102364.75
2023-02-11T05:17:36.385Z,102369.91
2023-02-11T05:20:03.755Z,102359.97
2023-02-11T05:22:30.939Z,102361.59
2023-02-11T05:24:58.354Z,102353.34
2023-02-11T05:27:25.510Z,102359.19
2023-02-11T05:29:52.580Z,102356.31
2023-02-11T05:32:19.982Z,102359.59
2023-02-11T05:34:47.073Z,102355.37
2023-02-11T05:37:14.253Z,102357.41
2023-02-11T05:39:41.659Z,102359.00
2023-02-11T05:42:09.050Z,102352.19
2023-02-11T05:44:36.164Z,102352.91
2023-02-11T05:47:03.922Z,102345.56
2023-02-11T05:49:31.018Z,102351.00
2023-02-11T05:51:58.109Z,102346.88
2023-02-11T05:54:25.603Z,102351.16
2023-02-11T05:56:52.810Z,102349.63
2023-02-11T05:59:19.938Z,102346.88
2023-02-11T06:01:47.309Z,102347.03
2023-02-11T06:04:14.706Z,102347.06
2023-02-11T06:06:41.795Z,102351.56
2023-02-11T06:09:11.958Z,102362.06
2023-02-11T06:11:39.492Z,102360.66
2023-02-11T06:14:06.688Z,102359.03
2023-02-11T06:16:33.878Z,102358.25
2023-02-11T06:19:01.371Z,102361.78
2023-02-11T06:21:42.463Z,102371.47
2023-02-11T06:24:12.005Z,102368.87
2023-02-11T06:26:39.183Z,102379.19
2023-02-11T06:29:06.415Z,102366.59
2023-02-11T06:31:33.960Z,102361.59
2023-02-11T06:34:01.188Z,102353.41
2023-02-11T06:36:28.380Z,102354.56
2023-02-11T06:38:55.826Z,102343.59
2023-02-11T06:41:23.206Z,102337.09
2023-02-11T06:43:50.737Z,102344.03
2023-02-11T06:46:18.281Z,102344.25
2023-02-11T06:48:45.630Z,102342.72
2023-02-11T06:51:13.772Z,102338.72
2023-02-11T06:53:44.919Z,102337.00
2023-02-11T06:56:17.908Z,102346.38
2023-02-11T06:58:45.841Z,102334.81
2023-02-11T07:01:15.181Z,102337.41
2023-02-11T07:03:44.473Z,102329.88
2023-02-11T07:06:15.153Z,102328.34
2023-02-11T07:08:43.098Z,102331.91
2023-02-11T07:11:14.980Z,102333.84
2023-02-11T07:13:42.902Z,102328.19
2023-02-11T07:16:13.548Z,102320.78
2023-02-11T07:18:40.846Z,102328.56
2023-02-11T07:21:11.044Z,102326.91
2023-02-11T07:23:39.511Z,102324.22
2023-02-11T07:26:15.569Z,102326.66
2023-02-11T07:28:43.681Z,102324.06
2023-02-11T07:31:16.513Z,102320.00
2023-02-11T07:33:45.815Z,102328.34
2023-02-11T07:36:14.514Z,102326.09
2023-02-11T07:38:42.217Z,102323.62
2023-02-11T07:41:12.124Z,102322.91
2023-02-11T07:43:40.198Z,102325.66
2023-02-11T07:46:11.882Z,102324.03
2023-02-11T07:48:39.928Z,102326.81
2023-02-11T07:51:18.852Z,102317.72
2023-02-11T07:53:46.556Z,102322.25
2023-02-11T07:56:14.760Z,102314.75
2023-02-11T07:58:43.215Z,102310.56
2023-02-11T08:01:13.261Z,102313.06
2023-02-11T08:03:42.809Z,102308.25
2023-02-11T08:06:13.089Z,102303.28
2023-02-11T08:08:40.820Z,102304.75
2023-02-11T08:11:09.528Z,102309.13
2023-02-11T08:13:37.152Z,102313.44
2023-02-11T08:16:05.700Z,102306.56
2023-02-11T08:18:33.839Z,102304.69
2023-02-11T08:21:08.703Z,102308.37
2023-02-11T08:23:38.122Z,102309.94
2023-02-11T08:26:07.643Z,102303.50
2023-02-11T08:28:39.619Z,102309.66
2023-02-11T08:31:09.086Z,102312.34
2023-02-11T08:33:36.511Z,102305.63
2023-02-11T08:36:16.033Z,102309.16
2023-02-11T08:38:44.247Z,102296.41
2023-02-11T08:41:11.912Z,102297.41
2023-02-11T08:43:42.025Z,102293.41
2023-02-11T08:46:13.579Z,102290.00
2023-02-11T08:48:41.119Z,102294.44
2023-02-11T08:51:15.381Z,102302.94
2023-02-11T08:53:42.848Z,102301.31
2023-02-11T08:56:13.334Z,102305.59
2023-02-11T08:58:41.343Z,102297.84
2023-02-11T09:01:14.052Z,102293.59
2023-02-11T09:03:41.490Z,102300.94
2023-02-11T09:06:10.691Z,102293.38
2023-02-11T09:08:39.508Z,102294.28
2023-02-11T09:11:07.508Z,102294.50
2023-02-11T09:13:35.006Z,102297.03
2023-02-11T09:16:04.041Z,102291.16
2023-02-11T09:18:31.994Z,102281.75
2023-02-11T09:21:07.321Z,102280.38
2023-02-11T09:23:35.254Z,102286.44
2023-02-11T09:26:09.332Z,102295.03
2023-02-11T09:28:36.817Z,102282.28
2023-02-11T09:31:08.933Z,102277.41
2023-02-11T09:33:36.704Z,102275.25
2023-02-11T09:36:05.444Z,102275.31
2023-02-11T09:38:33.342Z,102274.53
2023-02-11T09:41:03.984Z,102279.69
2023-02-11T09:43:36.867Z,102277.16
2023-02-11T09:46:04.613Z,102265.22
2023-02-11T09:48:41.857Z,102256.66
2023-02-11T09:51:17.316Z,102258.34
2023-02-11T09:53:44.844Z,102255.81
2023-02-11T09:56:13.883Z,102263.47
2023-02-11T09:58:43.074Z,102260.03
2023-02-11T10:01:29.351Z,102249.78
2023-02-11T10:04:02.956Z,102252.34
2023-02-11T10:06:40.163Z,102253.97
2023-02-11T10:09:22.918Z,102247.16
2023-02-11T10:12:03.319Z,102256.63
2023-02-11T10:15:04.232Z,102248.94
2023-02-11T10:18:02.191Z,102235.22
2023-02-11T10:20:38.548Z,102230.91
2023-02-11T10:23:13.782Z,102225.66
2023-02-11T10:25:45.722Z,102216.16
2023-02-11T10:28:16.699Z,102216.09
2023-02-11T10:30:53.185Z,102217.03
2023-02-11T10:33:32.590Z,102218.75
2023-02-11T10:36:00.523Z,102208.34
2023-02-11T10:38:27.865Z,102209.25
2023-02-11T10:40:55.015Z,102203.28
2023-02-11T10:43:29.324Z,102198.06
2023-02-11T10:45:57.550Z,102191.22
2023-02-11T10:48:51.637Z,102194.56
2023-02-11T10:51:27.390Z,102191.00
2023-02-11T10:54:03.758Z,102183.16
2023-02-11T10:56:33.926Z,102182.25
2023-02-11T10:59:27.928Z,102183.91
2023-02-11T11:02:01.142Z,102173.72
2023-02-11T11:04:39.140Z,102167.59
2023-02-11T11:07:12.819Z,102163.94
2023-02-11T11:10:03.426Z,102161.28
2023-02-11T11:12:45.432Z,102158.91
2023-02-11T11:15:22.015Z,102158.25
2023-02-11T11:17:50.290Z,102151.03
2023-02-11T11:20:32.066Z,102142.53
2023-02-11T11:23:21.554Z,102139.34
2023-02-11T11:26:10.662Z,102136.50
2023-02-11T11:28:47.031Z,102133.41
2023-02-11T11:31:18.085Z,102127.12
2023-02-11T11:33:46.294Z,102118.59
2023-02-11T11:36:37.717Z,102116.16
2023-02-11T11:39:32.174Z,102104.25
2023-02-11T11:42:01.253Z,102109.84
2023-02-11T11:44:32.798Z,102103.78
2023-02-11T11:47:07.685Z,102093.06
2023-02-11T11:49:39.789Z,102092.09
2023-02-11T11:52:46.005Z,102085.78
2023-02-11T11:55:22.928Z,102084.34
2023-02-11T11:57:50.202Z,102080.94
2023-02-11T12:00:36.475Z,102077.37
2023-02-11T12:03:22.541Z,102068.63
2023-02-11T12:05:56.689Z,102069.19
2023-02-11T12:08:33.104Z,102068.06
2023-02-11T12:11:19.980Z,102058.88
2023-02-11T12:14:09.402Z,102054.75
2023-02-11T12:16:54.806Z,102055.66
2023-02-11T12:19:41.127Z,102033.94
2023-02-11T12:22:27.011Z,102040.37
2023-02-11T12:25:00.632Z,102025.34
2023-02-11T12:27:49.591Z,102024.62
2023-02-11T12:30:41.992Z,102018.12
2023-02-11T12:33:43.111Z,101990.63
2023-02-11T12:36:41.519Z,101984.47
2023-02-11T12:39:30.398Z,101983.56
2023-02-11T12:42:39.287Z,101976.59
2023-02-11T12:45:12.346Z,101980.47
2023-02-11T12:47:42.797Z,101969.16
2023-02-11T12:50:26.953Z,101962.63
2023-02-11T12:53:18.540Z,101964.12
2023-02-11T12:55:47.613Z,101965.97
2023-02-11T12:58:19.792Z,101965.72
2023-02-11T13:00:51.586Z,101961.12
2023-02-11T13:03:32.078Z,101955.06
2023-02-11T13:06:03.780Z,101960.59
2023-02-11T13:08:41.252Z,101943.53
2023-02-11T13:11:14.420Z,101947.88
2023-02-11T13:13:44.981Z,101939.84
2023-02-11T13:16:35.464Z,101937.66
2023-02-11T13:19:27.621Z,101942.41
2023-02-11T13:22:08.539Z,101947.94
2023-02-11T13:24:46.040Z,101931.28
2023-02-11T13:27:43.745Z,101935.50
2023-02-11T13:30:21.667Z,101936.44
2023-02-11T13:32:54.810Z,101914.72
2023-02-11T13:35:34.209Z,101908.88
2023-02-11T13:38:03.218Z,101907.91
2023-02-11T13:40:36.252Z,101906.31
2023-02-11T13:43:05.719Z,101900.75
2023-02-11T13:45:44.130Z,101914.75
2023-02-11T13:48:21.842Z,101915.28
2023-02-11T13:50:52.278Z,101917.13
2023-02-11T13:53:20.244Z,101910.22
2023-02-11T13:55:49.908Z,101914.59
2023-02-11T13:58:18.773Z,101916.41
2023-02-11T14:00:49.893Z,101917.22
2023-02-11T14:03:38.899Z,101917.13
2023-02-11T14:06:27.425Z,101913.88
2023-02-11T14:09:10.100Z,101911.09
2023-02-11T14:11:40.844Z,101922.19
2023-02-11T14:14:23.840Z,101921.37
2023-02-11T14:17:00.355Z,101916.06
2023-02-11T14:19:39.151Z,101915.94
2023-02-11T14:22:18.809Z,101893.53
2023-02-11T14:25:16.706Z,101890.75
2023-02-11T14:27:51.466Z,101896.84
2023-02-11T14:30:18.878Z,101900.09
2023-02-11T14:33:13.712Z,101914.06
2023-02-11T14:35:48.493Z,101909.06
2023-02-11T14:38:30.367Z,101920.50
2023-02-11T14:41:25.773Z,101932.59
2023-02-11T14:43:53.954Z,101920.66
2023-02-11T14:46:22.707Z,101922.44
2023-02-11T14:48:52.457Z,101918.97
2023-02-11T14:51:23.535Z,101921.59
2023-02-11T14:53:54.188Z,101914.66
2023-02-11T14:56:27.145Z,101913.91
2023-02-11T14:58:55.725Z,101917.50
2023-02-11T15:01:34.069Z,101921.00
2023-02-11T15:04:05.884Z,101919.28
2023-02-11T15:06:47.002Z,101916.81
2023-02-11T15:09:29.504Z,101908.16
2023-02-11T15:11:57.538Z,101898.63
2023-02-11T15:14:30.490Z,101898.59
2023-02-11T15:17:00.458Z,101896.88
2023-02-11T15:19:39.443Z,101896.97
2023-02-11T15:22:22.114Z,101897.06
2023-02-11T15:24:58.988Z,101891.06
2023-02-11T15:27:26.249Z,101888.53
2023-02-11T15:29:53.813Z,101879.97
2023-02-11T15:32:24.686Z,101880.06
2023-02-11T15:34:54.126Z,101888.00
2023-02-11T15:37:24.530Z,101882.09
2023-02-11T15:39:52.989Z,101871.91
2023-02-11T15:42:32.542Z,101865.00
2023-02-11T15:45:12.135Z,101872.84
2023-02-11T15:47:40.228Z,101867.22
2023-02-11T15:50:20.483Z,101876.09
2023-02-11T15:52:48.022Z,101859.09
2023-02-11T15:55:16.428Z,101861.09
2023-02-11T15:57:51.430Z,101858.66
2023-02-11T16:00:21.516Z,101871.81
2023-02-11T16:02:50.944Z,101867.72
2023-02-11T16:05:44.506Z,101861.78
2023-02-11T16:08:21.083Z,101866.94
2023-02-11T16:11:03.489Z,101854.13
2023-02-11T16:13:34.205Z,101860.91
2023-02-11T16:16:04.659Z,101864.19
2023-02-11T16:18:38.690Z,101849.44
2023-02-11T16:21:13.380Z,101851.84
2023-02-11T16:23:44.177Z,101845.75
2023-02-11T16:26:37.193Z,101845.06
2023-02-11T16:29:14.745Z,101848.19
2023-02-11T16:31:47.322Z,101836.19
2023-02-11T16:34:23.420Z,101831.72
2023-02-11T16:36:51.749Z,101824.28
2023-02-11T16:39:23.649Z,101831.28
2023-02-11T16:41:51.857Z,101828.00
2023-02-11T16:44:19.755Z,101839.00
2023-02-11T16:46:47.118Z,101832.34
2023-02-11T16:49:32.361Z,101837.72
2023-02-11T16:52:02.155Z,101849.12
2023-02-11T16:54:30.147Z,101841.47
2023-02-11T16:56:57.697Z,101847.63
2023-02-11T16:59:25.258Z,101843.44
2023-02-11T17:01:53.633Z,101841.69
2023-02-11T17:04:24.095Z,101839.12
2023-02-11T17:06:51.642Z,101846.16
2023-02-11T17:09:24.443Z,101832.41
2023-02-11T17:11:52.487Z,101838.41
2023-02-11T17:14:20.127Z,101842.69
2023-02-11T17:16:47.891Z,101831.62
2023-02-11T17:19:20.507Z,101837.72
2023-02-11T17:21:49.750Z,101840.31
2023-02-11T17:24:17.764Z,101841.16
2023-02-11T17:26:45.744Z,101839.50
2023-02-11T17:29:16.020Z,101840.31
2023-02-11T17:31:43.807Z,101829.16
2023-02-11T17:34:11.338Z,101846.28
2023-02-11T17:36:41.464Z,101841.16
2023-02-11T17:39:09.131Z,101835.19
2023-02-11T17:41:37.476Z,101829.25
2023-02-11T17:44:05.424Z,101827.56
2023-02-11T17:46:34.668Z,101836.19
2023-02-11T17:49:02.554Z,101835.31
2023-02-11T17:51:35.160Z,101840.44
2023-02-11T17:54:05.558Z,101850.72
2023-02-11T17:56:34.678Z,101858.41
2023-02-11T17:59:05.069Z,101860.09
2023-02-11T18:01:33.456Z,101855.81
2023-02-11T18:04:01.594Z,101864.37
2023-02-11T18:06:29.238Z,101852.31
2023-02-11T18:08:59.690Z,101859.22
2023-02-11T18:11:28.013Z,101853.34
2023-02-11T18:13:55.313Z,101843.13
2023-02-11T18:16:23.574Z,101841.53
2023-02-11T18:18:51.359Z,101829.56
2023-02-11T18:21:21.051Z,101820.97
2023-02-11T18:23:49.179Z,101821.84
2023-02-11T18:26:18.840Z,101821.00
2023-02-11T18:28:46.330Z,101832.12
2023-02-11T18:31:14.149Z,101819.25
2023-02-11T18:33:42.733Z,101815.81
2023-02-11T18:36:12.171Z,101815.84
2023-02-11T18:38:40.742Z,101824.38
2023-02-11T18:41:08.398Z,101814.09
2023-02-11T18:43:35.976Z,101813.22
2023-02-11T18:46:07.624Z,101814.94
2023-02-11T18:48:35.214Z,101810.66
2023-02-11T18:51:02.385Z,101818.38
2023-02-11T18:53:29.593Z,101808.94
2023-02-11T18:55:57.039Z,101813.22
2023-02-11T18:58:24.230Z,101823.44
2023-02-11T19:00:51.490Z,101821.62
2023-02-11T19:03:19.010Z,101819.94
2023-02-11T19:05:48.479Z,101813.97
2023-02-11T19:08:17.034Z,101824.16
2023-02-11T19:10:46.492Z,101826.63
2023-02-11T19:13:15.069Z,101832.50
2023-02-11T19:15:43.089Z,101835.00
2023-02-11T19:18:11.661Z,101835.78
2023-02-11T19:20:40.096Z,101833.22
2023-02-11T19:23:07.388Z,101837.53
2023-02-11T19:25:35.096Z,101841.03
2023-02-11T19:28:03.265Z,101837.59
2023-02-11T19:30:30.728Z,101835.88
2023-02-11T19:32:58.364Z,101838.41
2023-02-11T19:35:25.504Z,101843.69
2023-02-11T19:37:52.808Z,101840.28
2023-02-11T19:40:21.350Z,101835.94
2023-02-11T19:42:48.588Z,101830.63
2023-02-11T19:45:15.840Z,101841.72
2023-02-11T19:47:43.208Z,101833.87
2023-02-11T19:50:10.895Z,101837.31
2023-02-11T19:52:40.677Z,101833.81
2023-02-11T19:55:08.478Z,101827.69
2023-02-11T19:57:36.863Z,101835.41
2023-02-11T20:00:05.290Z,101831.03
2023-02-11T20:02:40.468Z,101842.19
2023-02-11T20:05:08.152Z,101840.53
2023-02-11T20:07:35.480Z,101838.78
2023-02-11T20:10:02.759Z,101830.25
2023-02-11T20:12:30.247Z,101820.78
2023-02-11T20:14:57.436Z,101817.41
2023-02-11T20:17:24.624Z,101816.47
2023-02-11T20:19:52.065Z,101812.22
2023-02-11T20:22:19.273Z,101812.25
2023-02-11T20:24:46.433Z,101812.34
2023-02-11T20:27:13.856Z,101815.75
2023-02-11T20:29:41.048Z,101810.66
2023-02-11T20:32:08.631Z,101808.91
2023-02-11T20:34:36.174Z,101808.06
2023-02-11T20:37:04.061Z,101812.31
2023-02-11T20:39:31.245Z,101818.34
2023-02-11T20:41:58.756Z,101816.56
2023-02-11T20:44:26.726Z,101812.25
2023-02-11T20:46:54.436Z,101813.09
2023-02-11T20:49:23.727Z,101798.50
2023-02-11T20:51:52.505Z,101801.06
2023-02-11T20:54:21.077Z,101799.41
2023-02-11T20:56:51.164Z,101801.06
2023-02-11T20:59:18.823Z,101801.91
2023-02-11T21:01:48.567Z,101800.16
2023-02-11T21:04:22.619Z,101804.47
2023-02-11T21:06:54.826Z,101813.88
2023-02-11T21:09:25.114Z,101807.91
2023-02-11T21:11:53.318Z,101804.53
2023-02-11T21:14:22.574Z,101795.91
2023-02-11T21:16:50.608Z,101801.88
2023-02-11T21:19:18.041Z,101801.94
2023-02-11T21:21:45.521Z,101792.50
2023-02-11T21:24:13.276Z,101789.13
2023-02-11T21:26:40.406Z,101774.53
2023-02-11T21:29:09.149Z,101765.16
2023-02-11T21:31:37.042Z,101775.53
2023-02-11T21:34:05.151Z,101770.41
2023-02-11T21:36:32.317Z,101781.63
2023-02-11T21:39:01.700Z,101782.47
2023-02-11T21:41:29.064Z,101789.37
2023-02-11T21:43:56.888Z,101788.56
2023-02-11T21:46:24.696Z,101792.00
2023-02-11T21:48:52.275Z,101792.03
2023-02-11T21:51:22.411Z,101788.59
2023-02-11T21:54:01.297Z,101784.28
2023-02-11T21:56:30.235Z,101785.19
2023-02-11T21:58:59.446Z,101773.16
2023-02-11T22:01:29.334Z,101773.13
2023-02-11T22:03:57.657Z,101785.13
2023-02-11T22:06:27.654Z,101797.16
2023-02-11T22:08:55.278Z,101802.28
2023-02-11T22:11:23.322Z,101798.81
2023-02-11T22:13:55.289Z,101792.81
2023-02-11T22:16:23.306Z,101780.78
2023-02-11T22:18:51.482Z,101770.44
2023-02-11T22:21:21.640Z,101791.09
2023-02-11T22:23:49.460Z,101789.34
2023-02-11T22:26:19.478Z,101781.66
2023-02-11T22:28:46.955Z,101798.03
2023-02-11T22:31:17.017Z,101788.59
2023-02-11T22:36:23.346Z,101806.63
2023-02-11T22:38:51.397Z,101810.03
2023-02-11T22:41:19.530Z,101804.09
2023-02-11T22:43:46.802Z,101806.69
2023-02-11T22:46:16.594Z,101805.81
2023-02-11T22:48:44.090Z,101800.69
2023-02-11T22:51:15.673Z,101798.94
2023-02-11T22:53:44.458Z,101794.69
2023-02-11T22:56:15.616Z,101794.75
2023-02-11T22:58:43.640Z,101789.53
2023-02-11T23:01:11.551Z,101795.53
2023-02-11T23:03:38.792Z,101792.13
2023-02-11T23:06:07.769Z,101787.78
2023-02-11T23:08:35.157Z,101798.94
2023-02-11T23:11:10.969Z,101793.78
2023-02-11T23:13:39.928Z,101791.19
2023-02-11T23:16:09.090Z,101777.47
2023-02-11T23:18:37.495Z,101770.62
2023-02-11T23:21:15.808Z,101770.56
2023-02-11T23:23:43.324Z,101766.28
2023-02-11T23:26:15.790Z,101765.41
2023-02-11T23:28:45.943Z,101780.88
2023-02-11T23:31:20.937Z,101775.72
2023-02-11T23:33:49.042Z,101755.94
2023-02-11T23:36:17.890Z,101772.25
2023-02-11T23:38:45.543Z,101785.97
2023-02-11T23:41:13.391Z,101769.63
2023-02-11T23:43:40.961Z,101788.50
2023-02-11T23:46:09.257Z,101792.81
2023-02-11T23:48:37.633Z,101796.19
2023-02-11T23:51:05.494Z,101796.22
2023-02-11T23:53:32.670Z,101802.19
2023-02-11T23:55:59.825Z,101782.37
2023-02-11T23:58:27.271Z,101782.37
